sensor_id;sensor_type;location;lat;lon;timestamp;P1;durP1;ratioP1;P2;durP2;ratioP2
10890;SDS011;5498;50.928;11.598;2022-11-20T00:02:40;21.77;;;11.20;;
10890;SDS011;5498;50.928;11.598;2022-11-20T00:05:42;21.57;;;11.23;;
10890;SDS011;5498;50.928;11.598;2022-11-20T00:08:45;22.67;;;11.43;;
10890;SDS011;5498;50.928;11.598;2022-11-20T00:11:47;20.63;;;10.23;;
10890;SDS011;5498;50.928;11.598;2022-11-20T00:14:51;24.60;;;12.20;;
10890;SDS011;5498;50.928;11.598;2022-11-20T00:17:53;22.23;;;12.43;;
10890;SDS011;5498;50.928;11.598;2022-11-20T00:20:59;19.57;;;10.83;;
10890;SDS011;5498;50.928;11.598;2022-11-20T00:24:02;24.43;;;11.57;;
10890;SDS011;5498;50.928;11.598;2022-11-20T00:27:05;26.80;;;11.13;;
10890;SDS011;5498;50.928;11.598;2022-11-20T00:30:09;21.97;;;10.70;;
10890;SDS011;5498;50.928;11.598;2022-11-20T00:33:11;22.57;;;10.90;;
10890;SDS011;5498;50.928;11.598;2022-11-20T00:36:14;26.57;;;13.10;;
10890;SDS011;5498;50.928;11.598;2022-11-20T00:39:18;24.17;;;11.63;;
10890;SDS011;5498;50.928;11.598;2022-11-20T00:42:20;19.87;;;10.93;;
10890;SDS011;5498;50.928;11.598;2022-11-20T00:45:24;24.47;;;11.60;;
10890;SDS011;5498;50.928;11.598;2022-11-20T00:48:26;24.43;;;11.07;;
10890;SDS011;5498;50.928;11.598;2022-11-20T00:51:28;23.87;;;12.17;;
10890;SDS011;5498;50.928;11.598;2022-11-20T00:54:30;26.17;;;10.90;;
10890;SDS011;5498;50.928;11.598;2022-11-20T00:57:33;24.90;;;11.33;;
10890;SDS011;5498;50.928;11.598;2022-11-20T01:00:36;28.17;;;11.40;;
10890;SDS011;5498;50.928;11.598;2022-11-20T01:03:38;21.93;;;11.97;;
10890;SDS011;5498;50.928;11.598;2022-11-20T01:06:42;23.13;;;11.60;;
10890;SDS011;5498;50.928;11.598;2022-11-20T01:09:44;21.47;;;10.97;;
10890;SDS011;5498;50.928;11.598;2022-11-20T01:12:46;25.63;;;12.10;;
10890;SDS011;5498;50.928;11.598;2022-11-20T01:16:10;23.57;;;11.47;;
10890;SDS011;5498;50.928;11.598;2022-11-20T01:19:16;21.90;;;11.43;;
10890;SDS011;5498;50.928;11.598;2022-11-20T01:22:20;21.87;;;11.03;;
10890;SDS011;5498;50.928;11.598;2022-11-20T01:25:22;24.90;;;11.37;;
10890;SDS011;5498;50.928;11.598;2022-11-20T01:28:24;25.87;;;11.23;;
10890;SDS011;5498;50.928;11.598;2022-11-20T01:31:28;25.10;;;11.40;;
10890;SDS011;5498;50.928;11.598;2022-11-20T01:34:32;23.07;;;11.03;;
10890;SDS011;5498;50.928;11.598;2022-11-20T01:37:34;20.33;;;11.00;;
10890;SDS011;5498;50.928;11.598;2022-11-20T01:40:36;22.07;;;11.03;;
10890;SDS011;5498;50.928;11.598;2022-11-20T01:43:38;25.60;;;11.23;;
10890;SDS011;5498;50.928;11.598;2022-11-20T01:46:42;19.60;;;10.33;;
10890;SDS011;5498;50.928;11.598;2022-11-20T01:49:54;21.17;;;10.83;;
10890;SDS011;5498;50.928;11.598;2022-11-20T01:53:03;23.03;;;11.53;;
10890;SDS011;5498;50.928;11.598;2022-11-20T01:56:09;22.60;;;10.87;;
10890;SDS011;5498;50.928;11.598;2022-11-20T01:59:15;26.73;;;11.70;;
10890;SDS011;5498;50.928;11.598;2022-11-20T02:02:20;22.00;;;11.60;;
10890;SDS011;5498;50.928;11.598;2022-11-20T02:05:25;21.17;;;10.80;;
10890;SDS011;5498;50.928;11.598;2022-11-20T02:08:33;19.03;;;10.23;;
10890;SDS011;5498;50.928;11.598;2022-11-20T02:11:36;21.73;;;11.17;;
10890;SDS011;5498;50.928;11.598;2022-11-20T02:14:38;21.43;;;10.67;;
10890;SDS011;5498;50.928;11.598;2022-11-20T02:17:40;19.10;;;10.20;;
10890;SDS011;5498;50.928;11.598;2022-11-20T02:20:43;21.63;;;10.70;;
10890;SDS011;5498;50.928;11.598;2022-11-20T02:24:04;21.23;;;10.87;;
10890;SDS011;5498;50.928;11.598;2022-11-20T02:27:10;21.53;;;12.40;;
10890;SDS011;5498;50.928;11.598;2022-11-20T02:30:14;22.03;;;11.30;;
10890;SDS011;5498;50.928;11.598;2022-11-20T02:33:17;24.50;;;10.83;;
10890;SDS011;5498;50.928;11.598;2022-11-20T02:36:19;24.43;;;10.97;;
10890;SDS011;5498;50.928;11.598;2022-11-20T02:39:22;18.33;;;10.17;;
10890;SDS011;5498;50.928;11.598;2022-11-20T02:42:27;22.43;;;11.00;;
10890;SDS011;5498;50.928;11.598;2022-11-20T02:45:29;22.20;;;11.53;;
10890;SDS011;5498;50.928;11.598;2022-11-20T02:48:31;23.83;;;11.73;;
10890;SDS011;5498;50.928;11.598;2022-11-20T02:51:33;21.93;;;11.40;;
10890;SDS011;5498;50.928;11.598;2022-11-20T02:54:36;19.50;;;11.03;;
10890;SDS011;5498;50.928;11.598;2022-11-20T02:57:39;20.63;;;10.47;;
10890;SDS011;5498;50.928;11.598;2022-11-20T03:00:41;28.70;;;11.60;;
10890;SDS011;5498;50.928;11.598;2022-11-20T03:03:43;24.07;;;10.53;;
10890;SDS011;5498;50.928;11.598;2022-11-20T03:06:45;19.40;;;10.80;;
10890;SDS011;5498;50.928;11.598;2022-11-20T03:09:48;22.47;;;10.97;;
10890;SDS011;5498;50.928;11.598;2022-11-20T03:12:52;24.10;;;11.10;;
10890;SDS011;5498;50.928;11.598;2022-11-20T03:15:55;24.13;;;10.67;;
10890;SDS011;5498;50.928;11.598;2022-11-20T03:18:57;18.97;;;10.53;;
10890;SDS011;5498;50.928;11.598;2022-11-20T03:22:00;17.57;;;10.67;;
10890;SDS011;5498;50.928;11.598;2022-11-20T03:25:04;22.83;;;10.37;;
10890;SDS011;5498;50.928;11.598;2022-11-20T03:28:06;21.23;;;10.47;;
10890;SDS011;5498;50.928;11.598;2022-11-20T03:31:09;19.87;;;9.73;;
10890;SDS011;5498;50.928;11.598;2022-11-20T03:34:13;23.80;;;10.30;;
10890;SDS011;5498;50.928;11.598;2022-11-20T03:37:15;27.10;;;10.33;;
10890;SDS011;5498;50.928;11.598;2022-11-20T03:40:18;20.83;;;10.47;;
10890;SDS011;5498;50.928;11.598;2022-11-20T03:43:20;16.20;;;8.83;;
10890;SDS011;5498;50.928;11.598;2022-11-20T03:46:23;20.07;;;9.67;;
10890;SDS011;5498;50.928;11.598;2022-11-20T03:49:25;17.57;;;8.60;;
10890;SDS011;5498;50.928;11.598;2022-11-20T03:52:27;18.43;;;8.80;;
10890;SDS011;5498;50.928;11.598;2022-11-20T03:55:30;18.53;;;9.70;;
10890;SDS011;5498;50.928;11.598;2022-11-20T03:58:32;22.10;;;10.10;;
10890;SDS011;5498;50.928;11.598;2022-11-20T04:01:36;17.13;;;9.43;;
10890;SDS011;5498;50.928;11.598;2022-11-20T04:04:38;19.73;;;9.40;;
10890;SDS011;5498;50.928;11.598;2022-11-20T04:07:40;16.27;;;8.67;;
10890;SDS011;5498;50.928;11.598;2022-11-20T04:10:43;18.37;;;9.60;;
10890;SDS011;5498;50.928;11.598;2022-11-20T04:13:46;19.60;;;9.73;;
10890;SDS011;5498;50.928;11.598;2022-11-20T04:16:51;18.93;;;9.53;;
10890;SDS011;5498;50.928;11.598;2022-11-20T04:19:53;20.33;;;9.97;;
10890;SDS011;5498;50.928;11.598;2022-11-20T04:22:55;18.63;;;10.87;;
10890;SDS011;5498;50.928;11.598;2022-11-20T04:26:02;19.20;;;9.20;;
10890;SDS011;5498;50.928;11.598;2022-11-20T04:29:05;17.93;;;9.83;;
10890;SDS011;5498;50.928;11.598;2022-11-20T04:32:07;19.40;;;10.67;;
10890;SDS011;5498;50.928;11.598;2022-11-20T04:35:09;17.30;;;9.37;;
10890;SDS011;5498;50.928;11.598;2022-11-20T04:38:11;20.93;;;9.67;;
10890;SDS011;5498;50.928;11.598;2022-11-20T04:41:16;16.87;;;9.20;;
10890;SDS011;5498;50.928;11.598;2022-11-20T04:44:20;17.20;;;8.93;;
10890;SDS011;5498;50.928;11.598;2022-11-20T04:47:22;18.50;;;9.87;;
10890;SDS011;5498;50.928;11.598;2022-11-20T04:50:25;19.47;;;9.40;;
10890;SDS011;5498;50.928;11.598;2022-11-20T04:53:27;19.40;;;8.73;;
10890;SDS011;5498;50.928;11.598;2022-11-20T04:56:30;18.97;;;10.00;;
10890;SDS011;5498;50.928;11.598;2022-11-20T04:59:32;18.97;;;9.50;;
10890;SDS011;5498;50.928;11.598;2022-11-20T05:02:34;18.10;;;9.43;;
10890;SDS011;5498;50.928;11.598;2022-11-20T05:05:36;17.87;;;9.40;;
10890;SDS011;5498;50.928;11.598;2022-11-20T05:08:38;20.47;;;9.43;;
10890;SDS011;5498;50.928;11.598;2022-11-20T05:11:42;22.90;;;10.03;;
10890;SDS011;5498;50.928;11.598;2022-11-20T05:14:44;17.23;;;8.80;;
10890;SDS011;5498;50.928;11.598;2022-11-20T05:17:47;18.13;;;9.63;;
10890;SDS011;5498;50.928;11.598;2022-11-20T05:20:54;19.77;;;9.93;;
10890;SDS011;5498;50.928;11.598;2022-11-20T05:23:57;21.83;;;10.60;;
10890;SDS011;5498;50.928;11.598;2022-11-20T05:27:00;18.23;;;8.77;;
10890;SDS011;5498;50.928;11.598;2022-11-20T05:30:03;20.50;;;10.83;;
10890;SDS011;5498;50.928;11.598;2022-11-20T05:33:07;19.33;;;9.07;;
10890;SDS011;5498;50.928;11.598;2022-11-20T05:36:09;18.47;;;9.17;;
10890;SDS011;5498;50.928;11.598;2022-11-20T05:39:13;15.30;;;8.80;;
10890;SDS011;5498;50.928;11.598;2022-11-20T05:42:16;21.27;;;9.40;;
10890;SDS011;5498;50.928;11.598;2022-11-20T05:45:33;21.53;;;8.87;;
10890;SDS011;5498;50.928;11.598;2022-11-20T05:48:36;18.47;;;9.00;;
10890;SDS011;5498;50.928;11.598;2022-11-20T05:51:39;19.00;;;9.27;;
10890;SDS011;5498;50.928;11.598;2022-11-20T05:54:41;17.00;;;8.90;;
10890;SDS011;5498;50.928;11.598;2022-11-20T05:57:44;17.17;;;9.20;;
10890;SDS011;5498;50.928;11.598;2022-11-20T06:00:46;18.70;;;9.83;;
10890;SDS011;5498;50.928;11.598;2022-11-20T06:03:48;26.77;;;11.67;;
10890;SDS011;5498;50.928;11.598;2022-11-20T06:06:51;20.93;;;10.70;;
10890;SDS011;5498;50.928;11.598;2022-11-20T06:09:53;21.83;;;10.97;;
10890;SDS011;5498;50.928;11.598;2022-11-20T06:12:58;19.50;;;9.30;;
10890;SDS011;5498;50.928;11.598;2022-11-20T06:16:00;16.53;;;9.70;;
10890;SDS011;5498;50.928;11.598;2022-11-20T06:19:02;20.57;;;9.87;;
10890;SDS011;5498;50.928;11.598;2022-11-20T06:22:04;21.40;;;10.27;;
10890;SDS011;5498;50.928;11.598;2022-11-20T06:25:06;22.57;;;9.37;;
10890;SDS011;5498;50.928;11.598;2022-11-20T06:28:10;20.57;;;10.50;;
10890;SDS011;5498;50.928;11.598;2022-11-20T06:31:13;24.00;;;10.83;;
10890;SDS011;5498;50.928;11.598;2022-11-20T06:34:17;26.53;;;10.50;;
10890;SDS011;5498;50.928;11.598;2022-11-20T06:37:19;16.57;;;9.60;;
10890;SDS011;5498;50.928;11.598;2022-11-20T06:40:21;17.57;;;9.73;;
10890;SDS011;5498;50.928;11.598;2022-11-20T06:43:24;18.03;;;9.33;;
10890;SDS011;5498;50.928;11.598;2022-11-20T06:46:27;14.60;;;8.40;;
10890;SDS011;5498;50.928;11.598;2022-11-20T06:49:29;16.60;;;9.07;;
10890;SDS011;5498;50.928;11.598;2022-11-20T06:52:31;19.33;;;9.73;;
10890;SDS011;5498;50.928;11.598;2022-11-20T06:55:34;20.13;;;9.27;;
10890;SDS011;5498;50.928;11.598;2022-11-20T06:58:37;18.13;;;9.43;;
10890;SDS011;5498;50.928;11.598;2022-11-20T07:01:39;19.63;;;9.90;;
10890;SDS011;5498;50.928;11.598;2022-11-20T07:04:42;14.80;;;9.43;;
10890;SDS011;5498;50.928;11.598;2022-11-20T07:07:44;16.90;;;9.03;;
10890;SDS011;5498;50.928;11.598;2022-11-20T07:10:46;13.93;;;9.13;;
10890;SDS011;5498;50.928;11.598;2022-11-20T07:13:49;19.97;;;10.27;;
10890;SDS011;5498;50.928;11.598;2022-11-20T07:16:51;25.63;;;10.33;;
10890;SDS011;5498;50.928;11.598;2022-11-20T07:19:53;20.00;;;9.67;;
10890;SDS011;5498;50.928;11.598;2022-11-20T07:22:56;21.67;;;9.77;;
10890;SDS011;5498;50.928;11.598;2022-11-20T07:26:02;16.57;;;9.43;;
10890;SDS011;5498;50.928;11.598;2022-11-20T07:29:07;18.27;;;9.17;;
10890;SDS011;5498;50.928;11.598;2022-11-20T07:32:09;20.23;;;9.20;;
10890;SDS011;5498;50.928;11.598;2022-11-20T07:35:11;18.47;;;9.83;;
10890;SDS011;5498;50.928;11.598;2022-11-20T07:38:13;18.90;;;9.70;;
10890;SDS011;5498;50.928;11.598;2022-11-20T07:41:15;19.30;;;9.23;;
10890;SDS011;5498;50.928;11.598;2022-11-20T07:44:18;17.00;;;9.77;;
10890;SDS011;5498;50.928;11.598;2022-11-20T07:47:20;18.67;;;9.03;;
10890;SDS011;5498;50.928;11.598;2022-11-20T07:50:22;18.03;;;9.53;;
10890;SDS011;5498;50.928;11.598;2022-11-20T07:53:25;18.77;;;10.20;;
10890;SDS011;5498;50.928;11.598;2022-11-20T07:56:27;20.73;;;9.40;;
10890;SDS011;5498;50.928;11.598;2022-11-20T07:59:30;21.23;;;10.80;;
10890;SDS011;5498;50.928;11.598;2022-11-20T08:02:32;20.40;;;10.20;;
10890;SDS011;5498;50.928;11.598;2022-11-20T08:05:34;18.63;;;9.43;;
10890;SDS011;5498;50.928;11.598;2022-11-20T08:08:37;20.50;;;9.43;;
10890;SDS011;5498;50.928;11.598;2022-11-20T08:11:39;19.13;;;10.30;;
10890;SDS011;5498;50.928;11.598;2022-11-20T08:15:00;17.90;;;9.17;;
10890;SDS011;5498;50.928;11.598;2022-11-20T08:18:03;19.63;;;10.37;;
10890;SDS011;5498;50.928;11.598;2022-11-20T08:21:07;22.03;;;11.30;;
10890;SDS011;5498;50.928;11.598;2022-11-20T08:24:09;19.10;;;11.17;;
10890;SDS011;5498;50.928;11.598;2022-11-20T08:27:11;20.03;;;9.90;;
10890;SDS011;5498;50.928;11.598;2022-11-20T08:30:15;22.20;;;10.57;;
10890;SDS011;5498;50.928;11.598;2022-11-20T08:33:17;18.87;;;9.77;;
10890;SDS011;5498;50.928;11.598;2022-11-20T08:36:20;19.57;;;9.70;;
10890;SDS011;5498;50.928;11.598;2022-11-20T08:39:23;21.93;;;9.93;;
10890;SDS011;5498;50.928;11.598;2022-11-20T08:42:25;17.43;;;9.43;;
10890;SDS011;5498;50.928;11.598;2022-11-20T08:45:29;18.67;;;9.60;;
10890;SDS011;5498;50.928;11.598;2022-11-20T08:48:31;23.93;;;10.93;;
10890;SDS011;5498;50.928;11.598;2022-11-20T08:51:33;19.13;;;9.77;;
10890;SDS011;5498;50.928;11.598;2022-11-20T08:54:36;21.37;;;10.33;;
10890;SDS011;5498;50.928;11.598;2022-11-20T08:57:38;17.13;;;9.33;;
10890;SDS011;5498;50.928;11.598;2022-11-20T09:00:41;19.60;;;10.10;;
10890;SDS011;5498;50.928;11.598;2022-11-20T09:03:43;18.17;;;9.10;;
10890;SDS011;5498;50.928;11.598;2022-11-20T09:06:45;15.57;;;8.90;;
10890;SDS011;5498;50.928;11.598;2022-11-20T09:09:50;18.27;;;8.87;;
10890;SDS011;5498;50.928;11.598;2022-11-20T09:12:52;18.20;;;9.27;;
10890;SDS011;5498;50.928;11.598;2022-11-20T09:15:57;16.50;;;9.37;;
10890;SDS011;5498;50.928;11.598;2022-11-20T09:19:01;20.13;;;9.93;;
10890;SDS011;5498;50.928;11.598;2022-11-20T09:22:03;18.17;;;9.10;;
10890;SDS011;5498;50.928;11.598;2022-11-20T09:25:05;20.73;;;10.03;;
10890;SDS011;5498;50.928;11.598;2022-11-20T09:28:08;16.73;;;9.23;;
10890;SDS011;5498;50.928;11.598;2022-11-20T09:31:13;20.90;;;10.37;;
10890;SDS011;5498;50.928;11.598;2022-11-20T09:34:23;16.10;;;8.73;;
10890;SDS011;5498;50.928;11.598;2022-11-20T09:37:25;21.13;;;9.93;;
10890;SDS011;5498;50.928;11.598;2022-11-20T09:40:27;20.60;;;9.53;;
10890;SDS011;5498;50.928;11.598;2022-11-20T09:43:38;18.80;;;9.40;;
10890;SDS011;5498;50.928;11.598;2022-11-20T09:46:53;24.33;;;10.70;;
10890;SDS011;5498;50.928;11.598;2022-11-20T09:50:07;19.40;;;9.87;;
10890;SDS011;5498;50.928;11.598;2022-11-20T09:53:27;16.50;;;9.00;;
10890;SDS011;5498;50.928;11.598;2022-11-20T09:56:37;17.60;;;8.37;;
10890;SDS011;5498;50.928;11.598;2022-11-20T09:59:42;17.87;;;10.10;;
10890;SDS011;5498;50.928;11.598;2022-11-20T10:02:50;20.17;;;11.37;;
10890;SDS011;5498;50.928;11.598;2022-11-20T10:05:58;18.30;;;10.00;;
10890;SDS011;5498;50.928;11.598;2022-11-20T10:09:07;16.17;;;9.03;;
10890;SDS011;5498;50.928;11.598;2022-11-20T10:12:25;19.23;;;9.63;;
10890;SDS011;5498;50.928;11.598;2022-11-20T10:15:37;22.47;;;11.63;;
10890;SDS011;5498;50.928;11.598;2022-11-20T10:18:57;19.60;;;10.50;;
10890;SDS011;5498;50.928;11.598;2022-11-20T10:22:14;17.93;;;10.13;;
10890;SDS011;5498;50.928;11.598;2022-11-20T10:25:33;16.90;;;9.17;;
10890;SDS011;5498;50.928;11.598;2022-11-20T10:28:45;17.63;;;9.47;;
10890;SDS011;5498;50.928;11.598;2022-11-20T10:32:00;16.50;;;8.97;;
10890;SDS011;5498;50.928;11.598;2022-11-20T10:35:06;18.20;;;8.97;;
10890;SDS011;5498;50.928;11.598;2022-11-20T10:38:24;14.67;;;9.10;;
10890;SDS011;5498;50.928;11.598;2022-11-20T10:41:40;17.73;;;9.00;;
10890;SDS011;5498;50.928;11.598;2022-11-20T10:44:43;16.67;;;8.30;;
10890;SDS011;5498;50.928;11.598;2022-11-20T10:48:07;17.20;;;8.90;;
10890;SDS011;5498;50.928;11.598;2022-11-20T10:51:21;16.73;;;9.47;;
10890;SDS011;5498;50.928;11.598;2022-11-20T10:54:36;19.57;;;9.83;;
10890;SDS011;5498;50.928;11.598;2022-11-20T10:57:48;17.47;;;9.90;;
10890;SDS011;5498;50.928;11.598;2022-11-20T11:01:02;16.27;;;9.10;;
10890;SDS011;5498;50.928;11.598;2022-11-20T11:04:07;20.77;;;9.80;;
10890;SDS011;5498;50.928;11.598;2022-11-20T11:07:33;16.03;;;9.50;;
10890;SDS011;5498;50.928;11.598;2022-11-20T11:10:39;18.87;;;10.17;;
10890;SDS011;5498;50.928;11.598;2022-11-20T11:13:46;16.63;;;9.13;;
10890;SDS011;5498;50.928;11.598;2022-11-20T11:16:49;18.00;;;8.17;;
10890;SDS011;5498;50.928;11.598;2022-11-20T11:19:59;16.93;;;9.00;;
10890;SDS011;5498;50.928;11.598;2022-11-20T11:23:10;17.40;;;9.47;;
10890;SDS011;5498;50.928;11.598;2022-11-20T11:26:32;17.23;;;9.77;;
10890;SDS011;5498;50.928;11.598;2022-11-20T11:29:34;17.60;;;9.30;;
10890;SDS011;5498;50.928;11.598;2022-11-20T11:32:35;19.83;;;10.00;;
10890;SDS011;5498;50.928;11.598;2022-11-20T11:35:43;16.90;;;9.47;;
10890;SDS011;5498;50.928;11.598;2022-11-20T11:38:50;16.30;;;8.97;;
10890;SDS011;5498;50.928;11.598;2022-11-20T11:41:54;18.77;;;9.97;;
10890;SDS011;5498;50.928;11.598;2022-11-20T11:44:56;15.77;;;9.93;;
10890;SDS011;5498;50.928;11.598;2022-11-20T11:48:07;18.80;;;9.73;;
10890;SDS011;5498;50.928;11.598;2022-11-20T11:51:10;21.00;;;10.97;;
10890;SDS011;5498;50.928;11.598;2022-11-20T11:54:15;21.50;;;10.40;;
10890;SDS011;5498;50.928;11.598;2022-11-20T11:57:22;19.53;;;10.20;;
10890;SDS011;5498;50.928;11.598;2022-11-20T12:00:31;19.73;;;10.40;;
10890;SDS011;5498;50.928;11.598;2022-11-20T12:03:35;23.20;;;11.80;;
10890;SDS011;5498;50.928;11.598;2022-11-20T12:06:39;22.00;;;11.67;;
10890;SDS011;5498;50.928;11.598;2022-11-20T12:09:52;22.33;;;11.53;;
10890;SDS011;5498;50.928;11.598;2022-11-20T12:12:58;18.40;;;10.73;;
10890;SDS011;5498;50.928;11.598;2022-11-20T12:16:08;22.37;;;12.03;;
10890;SDS011;5498;50.928;11.598;2022-11-20T12:19:15;20.13;;;10.93;;
10890;SDS011;5498;50.928;11.598;2022-11-20T12:22:19;21.50;;;11.87;;
10890;SDS011;5498;50.928;11.598;2022-11-20T12:25:33;16.77;;;10.40;;
10890;SDS011;5498;50.928;11.598;2022-11-20T12:28:40;21.00;;;10.37;;
10890;SDS011;5498;50.928;11.598;2022-11-20T12:31:59;22.33;;;11.27;;
10890;SDS011;5498;50.928;11.598;2022-11-20T12:35:36;19.20;;;10.27;;
10890;SDS011;5498;50.928;11.598;2022-11-20T12:39:00;21.43;;;10.13;;
10890;SDS011;5498;50.928;11.598;2022-11-20T12:42:31;18.43;;;9.70;;
10890;SDS011;5498;50.928;11.598;2022-11-20T12:46:08;20.53;;;10.53;;
10890;SDS011;5498;50.928;11.598;2022-11-20T12:49:27;19.80;;;11.20;;
10890;SDS011;5498;50.928;11.598;2022-11-20T12:52:38;18.00;;;9.23;;
10890;SDS011;5498;50.928;11.598;2022-11-20T12:55:49;21.40;;;10.50;;
10890;SDS011;5498;50.928;11.598;2022-11-20T12:59:01;19.73;;;9.87;;
10890;SDS011;5498;50.928;11.598;2022-11-20T13:02:23;17.80;;;10.60;;
10890;SDS011;5498;50.928;11.598;2022-11-20T13:05:31;19.47;;;11.07;;
10890;SDS011;5498;50.928;11.598;2022-11-20T13:08:42;21.63;;;10.40;;
10890;SDS011;5498;50.928;11.598;2022-11-20T13:11:50;21.13;;;12.13;;
10890;SDS011;5498;50.928;11.598;2022-11-20T13:15:04;19.10;;;11.50;;
10890;SDS011;5498;50.928;11.598;2022-11-20T13:18:18;25.17;;;11.80;;
10890;SDS011;5498;50.928;11.598;2022-11-20T13:21:21;31.03;;;14.60;;
10890;SDS011;5498;50.928;11.598;2022-11-20T13:24:37;27.10;;;12.67;;
10890;SDS011;5498;50.928;11.598;2022-11-20T13:27:46;20.97;;;10.67;;
10890;SDS011;5498;50.928;11.598;2022-11-20T13:30:51;20.03;;;10.97;;
10890;SDS011;5498;50.928;11.598;2022-11-20T13:33:55;26.23;;;11.03;;
10890;SDS011;5498;50.928;11.598;2022-11-20T13:36:59;19.33;;;9.90;;
10890;SDS011;5498;50.928;11.598;2022-11-20T13:40:19;20.37;;;11.57;;
10890;SDS011;5498;50.928;11.598;2022-11-20T13:43:27;25.47;;;12.70;;
10890;SDS011;5498;50.928;11.598;2022-11-20T13:46:38;24.93;;;12.57;;
10890;SDS011;5498;50.928;11.598;2022-11-20T13:49:43;21.30;;;12.37;;
10890;SDS011;5498;50.928;11.598;2022-11-20T13:52:49;22.03;;;11.47;;
10890;SDS011;5498;50.928;11.598;2022-11-20T13:56:04;23.70;;;13.63;;
10890;SDS011;5498;50.928;11.598;2022-11-20T13:59:21;23.57;;;12.40;;
10890;SDS011;5498;50.928;11.598;2022-11-20T14:02:38;26.10;;;12.90;;
10890;SDS011;5498;50.928;11.598;2022-11-20T14:05:45;26.57;;;13.37;;
10890;SDS011;5498;50.928;11.598;2022-11-20T14:08:53;19.97;;;12.07;;
10890;SDS011;5498;50.928;11.598;2022-11-20T14:11:55;27.93;;;13.83;;
10890;SDS011;5498;50.928;11.598;2022-11-20T14:14:59;31.47;;;13.90;;
10890;SDS011;5498;50.928;11.598;2022-11-20T14:18:12;26.90;;;15.00;;
10890;SDS011;5498;50.928;11.598;2022-11-20T14:21:23;29.47;;;16.07;;
10890;SDS011;5498;50.928;11.598;2022-11-20T14:24:27;27.77;;;13.80;;
10890;SDS011;5498;50.928;11.598;2022-11-20T14:27:29;21.37;;;11.77;;
10890;SDS011;5498;50.928;11.598;2022-11-20T14:30:38;29.83;;;19.43;;
10890;SDS011;5498;50.928;11.598;2022-11-20T14:33:46;23.07;;;12.23;;
10890;SDS011;5498;50.928;11.598;2022-11-20T14:36:48;26.70;;;16.47;;
10890;SDS011;5498;50.928;11.598;2022-11-20T14:39:57;25.83;;;13.50;;
10890;SDS011;5498;50.928;11.598;2022-11-20T14:43:00;22.53;;;13.90;;
10890;SDS011;5498;50.928;11.598;2022-11-20T14:46:07;22.77;;;13.60;;
10890;SDS011;5498;50.928;11.598;2022-11-20T14:49:12;21.83;;;11.67;;
10890;SDS011;5498;50.928;11.598;2022-11-20T14:52:15;17.13;;;10.77;;
10890;SDS011;5498;50.928;11.598;2022-11-20T14:55:25;26.47;;;12.50;;
10890;SDS011;5498;50.928;11.598;2022-11-20T14:58:29;20.60;;;12.00;;
10890;SDS011;5498;50.928;11.598;2022-11-20T15:01:34;22.20;;;11.70;;
10890;SDS011;5498;50.928;11.598;2022-11-20T15:04:45;22.37;;;11.80;;
10890;SDS011;5498;50.928;11.598;2022-11-20T15:07:49;25.77;;;13.43;;
10890;SDS011;5498;50.928;11.598;2022-11-20T15:10:53;22.60;;;11.57;;
10890;SDS011;5498;50.928;11.598;2022-11-20T15:13:56;24.40;;;13.17;;
10890;SDS011;5498;50.928;11.598;2022-11-20T15:16:59;25.77;;;13.60;;
10890;SDS011;5498;50.928;11.598;2022-11-20T15:20:03;24.67;;;13.43;;
10890;SDS011;5498;50.928;11.598;2022-11-20T15:23:13;25.13;;;13.23;;
10890;SDS011;5498;50.928;11.598;2022-11-20T15:26:19;27.53;;;14.17;;
10890;SDS011;5498;50.928;11.598;2022-11-20T15:29:26;22.43;;;12.67;;
10890;SDS011;5498;50.928;11.598;2022-11-20T15:32:29;22.67;;;12.23;;
10890;SDS011;5498;50.928;11.598;2022-11-20T15:35:32;25.17;;;12.77;;
10890;SDS011;5498;50.928;11.598;2022-11-20T15:38:34;27.73;;;15.30;;
10890;SDS011;5498;50.928;11.598;2022-11-20T15:41:37;30.20;;;17.70;;
10890;SDS011;5498;50.928;11.598;2022-11-20T15:44:39;40.03;;;20.87;;
10890;SDS011;5498;50.928;11.598;2022-11-20T15:47:41;50.10;;;23.37;;
10890;SDS011;5498;50.928;11.598;2022-11-20T15:50:46;43.90;;;21.70;;
10890;SDS011;5498;50.928;11.598;2022-11-20T15:53:54;35.40;;;19.13;;
10890;SDS011;5498;50.928;11.598;2022-11-20T15:56:56;33.80;;;17.03;;
10890;SDS011;5498;50.928;11.598;2022-11-20T16:00:00;38.43;;;19.33;;
10890;SDS011;5498;50.928;11.598;2022-11-20T16:03:02;31.63;;;15.17;;
10890;SDS011;5498;50.928;11.598;2022-11-20T16:06:06;25.57;;;14.93;;
10890;SDS011;5498;50.928;11.598;2022-11-20T16:09:09;26.00;;;14.30;;
10890;SDS011;5498;50.928;11.598;2022-11-20T16:12:11;32.80;;;15.43;;
10890;SDS011;5498;50.928;11.598;2022-11-20T16:15:34;26.70;;;16.13;;
10890;SDS011;5498;50.928;11.598;2022-11-20T16:18:48;43.13;;;20.70;;
10890;SDS011;5498;50.928;11.598;2022-11-20T16:21:51;41.77;;;20.50;;
10890;SDS011;5498;50.928;11.598;2022-11-20T16:24:53;36.43;;;19.37;;
10890;SDS011;5498;50.928;11.598;2022-11-20T16:27:55;46.33;;;21.37;;
10890;SDS011;5498;50.928;11.598;2022-11-20T16:30:57;40.20;;;18.80;;
10890;SDS011;5498;50.928;11.598;2022-11-20T16:34:10;38.17;;;18.43;;
10890;SDS011;5498;50.928;11.598;2022-11-20T16:37:13;30.73;;;16.33;;
10890;SDS011;5498;50.928;11.598;2022-11-20T16:40:15;33.67;;;18.30;;
10890;SDS011;5498;50.928;11.598;2022-11-20T16:43:17;42.73;;;19.40;;
10890;SDS011;5498;50.928;11.598;2022-11-20T16:46:20;35.20;;;17.30;;
10890;SDS011;5498;50.928;11.598;2022-11-20T16:49:24;39.57;;;19.80;;
10890;SDS011;5498;50.928;11.598;2022-11-20T16:52:27;33.43;;;17.50;;
10890;SDS011;5498;50.928;11.598;2022-11-20T16:55:30;29.10;;;15.93;;
10890;SDS011;5498;50.928;11.598;2022-11-20T16:58:32;28.87;;;15.47;;
10890;SDS011;5498;50.928;11.598;2022-11-20T17:01:34;28.60;;;14.47;;
10890;SDS011;5498;50.928;11.598;2022-11-20T17:04:39;30.23;;;14.63;;
10890;SDS011;5498;50.928;11.598;2022-11-20T17:07:42;29.57;;;16.27;;
10890;SDS011;5498;50.928;11.598;2022-11-20T17:10:45;27.27;;;15.30;;
10890;SDS011;5498;50.928;11.598;2022-11-20T17:13:47;22.90;;;13.20;;
10890;SDS011;5498;50.928;11.598;2022-11-20T17:16:49;28.90;;;12.77;;
10890;SDS011;5498;50.928;11.598;2022-11-20T17:19:51;31.67;;;16.70;;
10890;SDS011;5498;50.928;11.598;2022-11-20T17:22:55;27.93;;;14.53;;
10890;SDS011;5498;50.928;11.598;2022-11-20T17:26:00;29.37;;;15.70;;
10890;SDS011;5498;50.928;11.598;2022-11-20T17:29:04;32.83;;;16.43;;
10890;SDS011;5498;50.928;11.598;2022-11-20T17:32:09;31.60;;;15.33;;
10890;SDS011;5498;50.928;11.598;2022-11-20T17:35:11;30.57;;;16.70;;
10890;SDS011;5498;50.928;11.598;2022-11-20T17:38:15;27.87;;;16.00;;
10890;SDS011;5498;50.928;11.598;2022-11-20T17:41:18;32.50;;;17.77;;
10890;SDS011;5498;50.928;11.598;2022-11-20T17:44:21;31.80;;;17.03;;
10890;SDS011;5498;50.928;11.598;2022-11-20T17:47:23;27.40;;;16.13;;
10890;SDS011;5498;50.928;11.598;2022-11-20T17:50:26;31.43;;;16.10;;
10890;SDS011;5498;50.928;11.598;2022-11-20T17:53:31;31.97;;;17.47;;
10890;SDS011;5498;50.928;11.598;2022-11-20T17:56:35;27.20;;;15.37;;
10890;SDS011;5498;50.928;11.598;2022-11-20T17:59:55;40.97;;;18.57;;
10890;SDS011;5498;50.928;11.598;2022-11-20T18:02:57;31.50;;;16.37;;
10890;SDS011;5498;50.928;11.598;2022-11-20T18:06:06;33.57;;;15.53;;
10890;SDS011;5498;50.928;11.598;2022-11-20T18:09:11;30.73;;;15.93;;
10890;SDS011;5498;50.928;11.598;2022-11-20T18:12:14;38.37;;;17.10;;